createdAt,value
2017-06-12T00:00:35.297Z,1005.29
2017-06-12T00:01:15.885Z,1005.25
2017-06-12T00:01:56.479Z,1005.21
2017-06-12T00:02:37.070Z,1005.22
2017-06-12T00:03:17.659Z,1005.18
2017-06-12T00:03:58.271Z,1005.17
2017-06-12T00:04:38.852Z,1005.2
2017-06-12T00:05:19.451Z,1005.18
2017-06-12T00:06:00.073Z,1005.16
2017-06-12T00:06:40.678Z,1005.19
2017-06-12T00:07:21.266Z,1005.19
2017-06-12T00:08:01.863Z,1005.19
2017-06-12T00:08:42.439Z,1005.24
2017-06-12T00:09:23.019Z,1005.29
2017-06-12T00:10:03.628Z,1005.22
2017-06-12T00:10:44.212Z,1005.24
2017-06-12T00:11:24.807Z,1005.26
2017-06-12T00:12:05.401Z,1005.24
2017-06-12T00:12:46.020Z,1005.26
2017-06-12T00:13:26.626Z,1005.31
2017-06-12T00:14:07.317Z,1005.28
2017-06-12T00:14:47.952Z,1005.31
2017-06-12T00:15:28.540Z,1005.29
2017-06-12T00:16:09.135Z,1005.3
2017-06-12T00:16:49.721Z,1005.29
2017-06-12T00:17:30.300Z,1005.32
2017-06-12T00:18:10.886Z,1005.31
2017-06-12T00:18:51.469Z,1005.3
2017-06-12T00:19:32.061Z,1005.32
2017-06-12T00:20:12.678Z,1005.28
2017-06-12T00:20:53.301Z,1005.33
2017-06-12T00:21:33.891Z,1005.26
2017-06-12T00:22:14.488Z,1005.29
2017-06-12T00:22:55.082Z,1005.24
2017-06-12T00:23:35.668Z,1005.22
2017-06-12T00:24:16.244Z,1005.28
2017-06-12T00:24:56.850Z,1005.3
2017-06-12T00:25:37.440Z,1005.28
2017-06-12T00:26:18.028Z,1005.27
2017-06-12T00:26:58.604Z,1005.28
2017-06-12T00:27:39.178Z,1005.23
2017-06-12T00:28:19.776Z,1005.26
2017-06-12T00:29:00.357Z,1005.28
2017-06-12T00:29:40.964Z,1005.25
2017-06-12T00:30:21.544Z,1005.26
2017-06-12T00:31:02.133Z,1005.24
2017-06-12T00:31:42.754Z,1005.25
2017-06-12T00:32:23.335Z,1005.23
2017-06-12T00:33:03.912Z,1005.2
2017-06-12T00:33:44.494Z,1005.15
2017-06-12T00:34:25.082Z,1005.07
2017-06-12T00:35:05.702Z,1005.01
2017-06-12T00:35:46.491Z,1005
2017-06-12T00:36:27.077Z,1005.01
2017-06-12T00:37:07.677Z,1004.98
2017-06-12T00:37:50.979Z,1005.01
2017-06-12T00:38:31.572Z,1005.04
2017-06-12T00:39:12.163Z,1005.03
2017-06-12T00:39:52.731Z,1005.03
2017-06-12T00:40:33.359Z,1005.04
2017-06-12T00:41:13.955Z,1005.01
2017-06-12T00:41:54.561Z,1005.02
2017-06-12T00:42:35.141Z,1004.99
2017-06-12T00:43:15.739Z,1005.01
2017-06-12T00:43:56.355Z,1005.02
2017-06-12T00:44:36.917Z,1005.03
2017-06-12T00:45:17.520Z,1005.05
2017-06-12T00:45:58.106Z,1005.04
2017-06-12T00:46:38.719Z,1005.03
2017-06-12T00:47:19.307Z,1004.99
2017-06-12T00:47:59.920Z,1005.05
2017-06-12T00:48:40.502Z,1004.99
2017-06-12T00:49:21.103Z,1004.99
2017-06-12T00:50:01.703Z,1005
2017-06-12T00:50:42.303Z,1004.99
2017-06-12T00:51:22.969Z,1004.99
2017-06-12T00:52:03.524Z,1004.94
2017-06-12T00:52:44.112Z,1004.9
2017-06-12T00:53:24.696Z,1004.92
2017-06-12T00:54:05.287Z,1004.89
2017-06-12T00:54:45.924Z,1004.91
2017-06-12T00:55:26.524Z,1004.85
2017-06-12T00:56:07.121Z,1004.81
2017-06-12T00:56:47.682Z,1004.83
2017-06-12T00:57:28.273Z,1004.81
2017-06-12T00:58:08.875Z,1004.79
2017-06-12T00:58:49.458Z,1004.74
2017-06-12T00:59:30.058Z,1004.71
2017-06-12T01:00:10.698Z,1004.66
2017-06-12T01:00:51.336Z,1004.64
2017-06-12T01:01:31.923Z,1004.6
2017-06-12T01:02:12.500Z,1004.6
2017-06-12T01:02:53.085Z,1004.61
2017-06-12T01:03:33.677Z,1004.57
2017-06-12T01:04:14.268Z,1004.54
2017-06-12T01:04:54.857Z,1004.57
2017-06-12T01:05:35.441Z,1004.5
2017-06-12T01:06:16.116Z,1004.55
2017-06-12T01:06:56.731Z,1004.51
2017-06-12T01:07:37.316Z,1004.52
2017-06-12T01:08:17.943Z,1004.56
2017-06-12T01:08:58.530Z,1004.58
2017-06-12T01:09:39.130Z,1004.54
2017-06-12T01:10:19.717Z,1004.53
2017-06-12T01:11:00.297Z,1004.52
2017-06-12T01:11:40.889Z,1004.49
2017-06-12T01:12:21.473Z,1004.51
2017-06-12T01:13:02.075Z,1004.5
2017-06-12T01:13:42.665Z,1004.45
2017-06-12T01:14:23.253Z,1004.49
2017-06-12T01:15:03.838Z,1004.47
2017-06-12T01:15:44.427Z,1004.47
2017-06-12T01:16:25.007Z,1004.46
2017-06-12T01:17:05.605Z,1004.48
2017-06-12T01:17:46.291Z,1004.45
2017-06-12T01:18:26.882Z,1004.48
2017-06-12T01:19:07.476Z,1004.44
2017-06-12T01:19:48.105Z,1004.46
2017-06-12T01:20:28.688Z,1004.47
2017-06-12T01:21:09.288Z,1004.44
2017-06-12T01:21:49.952Z,1004.46
2017-06-12T01:22:30.525Z,1004.48
2017-06-12T01:23:11.113Z,1004.45
2017-06-12T01:23:51.709Z,1004.46
2017-06-12T01:24:32.289Z,1004.45
2017-06-12T01:25:12.867Z,1004.43
2017-06-12T01:25:53.468Z,1004.43
2017-06-12T01:26:34.058Z,1004.41
2017-06-12T01:27:14.644Z,1004.38
2017-06-12T01:27:55.230Z,1004.37
2017-06-12T01:28:35.819Z,1004.36
2017-06-12T01:29:16.419Z,1004.36
2017-06-12T01:29:57.027Z,1004.38
2017-06-12T01:30:37.634Z,1004.41
2017-06-12T01:31:18.282Z,1004.41
2017-06-12T01:31:58.876Z,1004.42
2017-06-12T01:32:39.463Z,1004.45
2017-06-12T01:33:20.066Z,1004.44
2017-06-12T01:34:00.668Z,1004.47
2017-06-12T01:34:41.368Z,1004.41
2017-06-12T01:35:21.954Z,1004.41
2017-06-12T01:36:02.541Z,1004.38
2017-06-12T01:36:43.177Z,1004.38
2017-06-12T01:37:23.749Z,1004.43
2017-06-12T01:38:04.323Z,1004.42
2017-06-12T01:38:44.922Z,1004.44
2017-06-12T01:39:25.502Z,1004.42
2017-06-12T01:40:06.082Z,1004.43
2017-06-12T01:40:46.687Z,1004.41
2017-06-12T01:41:27.293Z,1004.38
2017-06-12T01:42:07.873Z,1004.39
2017-06-12T01:42:48.449Z,1004.36
2017-06-12T01:43:29.067Z,1004.4
2017-06-12T01:44:09.670Z,1004.4
2017-06-12T01:44:50.263Z,1004.4
2017-06-12T01:45:30.862Z,1004.39
2017-06-12T01:46:11.428Z,1004.45
2017-06-12T01:46:52.017Z,1004.46
2017-06-12T01:47:32.611Z,1004.47
2017-06-12T01:48:13.191Z,1004.41
2017-06-12T01:48:53.865Z,1004.36
2017-06-12T01:49:34.444Z,1004.34
2017-06-12T01:50:15.020Z,1004.29
2017-06-12T01:50:55.616Z,1004.26
2017-06-12T01:51:36.199Z,1004.25
2017-06-12T01:52:16.811Z,1004.22
2017-06-12T01:52:57.493Z,1004.21
2017-06-12T01:53:38.069Z,1004.23
2017-06-12T01:54:18.824Z,1004.26
2017-06-12T01:54:59.456Z,1004.25
2017-06-12T01:55:40.045Z,1004.28
2017-06-12T01:56:20.627Z,1004.24
2017-06-12T01:57:01.212Z,1004.22
2017-06-12T01:57:41.825Z,1004.22
2017-06-12T01:58:22.409Z,1004.14
2017-06-12T01:59:02.996Z,1004.12
2017-06-12T01:59:43.587Z,1004.09
2017-06-12T02:00:24.184Z,1004.07
2017-06-12T02:01:04.764Z,1004.05
2017-06-12T02:01:45.375Z,1004.05
2017-06-12T02:02:25.947Z,1004.09
2017-06-12T02:03:06.557Z,1004.07
2017-06-12T02:03:47.140Z,1004.02
2017-06-12T02:04:27.752Z,1004.02
2017-06-12T02:05:08.615Z,1004.03
2017-06-12T02:05:49.235Z,1003.99
2017-06-12T02:06:29.827Z,1004
2017-06-12T02:07:10.421Z,1003.98
2017-06-12T02:07:51.040Z,1004
2017-06-12T02:08:31.616Z,1004
2017-06-12T02:09:12.194Z,1003.96
2017-06-12T02:09:52.780Z,1004.01
2017-06-12T02:10:33.382Z,1003.97
2017-06-12T02:11:13.969Z,1003.95
2017-06-12T02:11:54.585Z,1003.96
2017-06-12T02:12:35.166Z,1003.93
2017-06-12T02:13:15.763Z,1003.91
2017-06-12T02:13:56.342Z,1003.89
2017-06-12T02:14:36.962Z,1003.87
2017-06-12T02:15:17.572Z,1003.89
2017-06-12T02:15:58.166Z,1003.93
2017-06-12T02:16:38.763Z,1003.97
2017-06-12T02:17:19.360Z,1004
2017-06-12T02:17:59.980Z,1004.04
2017-06-12T02:18:40.534Z,1004.03
2017-06-12T02:19:21.172Z,1004.04
2017-06-12T02:20:01.762Z,1004
2017-06-12T02:20:42.342Z,1003.99
2017-06-12T02:21:22.935Z,1003.93
2017-06-12T02:22:03.535Z,1003.94
2017-06-12T02:22:44.160Z,1003.93
2017-06-12T02:23:24.769Z,1003.94
2017-06-12T02:24:05.355Z,1003.97
2017-06-12T02:24:45.946Z,1003.95
2017-06-12T02:25:26.539Z,1003.9
2017-06-12T02:26:07.125Z,1003.97
2017-06-12T02:26:47.713Z,1003.93
2017-06-12T02:27:28.332Z,1003.96
2017-06-12T02:28:08.916Z,1003.98
2017-06-12T02:28:49.507Z,1004.01
2017-06-12T02:29:30.092Z,1004.04
2017-06-12T02:30:10.714Z,1004.04
2017-06-12T02:30:51.272Z,1004.02
2017-06-12T02:31:31.852Z,1004.05
2017-06-12T02:32:12.483Z,1004.03
2017-06-12T02:32:53.082Z,1004.01
2017-06-12T02:33:33.666Z,1004.01
2017-06-12T02:34:14.279Z,1004.04
2017-06-12T02:34:54.839Z,1004.04
2017-06-12T02:35:35.431Z,1004.06
2017-06-12T02:36:16.043Z,1004.01
2017-06-12T02:36:56.628Z,1004.03
2017-06-12T02:37:37.205Z,1003.99
2017-06-12T02:38:17.825Z,1003.98
2017-06-12T02:38:58.427Z,1004
2017-06-12T02:39:39.012Z,1003.98
2017-06-12T02:40:19.606Z,1003.97
2017-06-12T02:41:00.208Z,1004
2017-06-12T02:41:40.793Z,1003.99
2017-06-12T02:42:21.376Z,1004.02
2017-06-12T02:43:01.966Z,1003.95
2017-06-12T02:43:42.542Z,1003.97
2017-06-12T02:44:23.148Z,1003.98
2017-06-12T02:45:03.724Z,1003.96
2017-06-12T02:45:44.311Z,1003.96
2017-06-12T02:46:24.898Z,1003.96
2017-06-12T02:47:05.482Z,1003.97
2017-06-12T02:47:46.075Z,1003.95
2017-06-12T02:48:26.691Z,1003.96
2017-06-12T02:49:07.325Z,1003.97
2017-06-12T02:49:47.901Z,1003.95
2017-06-12T02:50:28.480Z,1003.92
2017-06-12T02:51:09.115Z,1003.94
2017-06-12T02:51:49.697Z,1003.92
2017-06-12T02:52:30.279Z,1003.94
2017-06-12T02:53:10.873Z,1003.95
2017-06-12T02:53:51.471Z,1003.96
2017-06-12T02:54:32.054Z,1003.96
2017-06-12T02:55:12.650Z,1003.96
2017-06-12T02:55:53.244Z,1003.95
2017-06-12T02:56:33.813Z,1003.91
2017-06-12T02:57:14.395Z,1003.91
2017-06-12T02:57:54.969Z,1003.87
2017-06-12T02:58:35.561Z,1003.85
2017-06-12T02:59:16.138Z,1003.82
2017-06-12T02:59:56.717Z,1003.83
2017-06-12T03:00:37.311Z,1003.85
2017-06-12T03:01:17.901Z,1003.84
2017-06-12T03:01:58.477Z,1003.83
2017-06-12T03:02:39.071Z,1003.87
2017-06-12T03:03:19.663Z,1003.89
2017-06-12T03:04:00.263Z,1003.91
2017-06-12T03:04:40.865Z,1003.86
2017-06-12T03:05:21.464Z,1003.89
2017-06-12T03:06:02.042Z,1003.87
2017-06-12T03:06:42.635Z,1003.93
2017-06-12T03:07:23.224Z,1003.9
2017-06-12T03:08:03.825Z,1003.88
2017-06-12T03:08:44.407Z,1003.89
2017-06-12T03:09:25.003Z,1003.88
2017-06-12T03:10:05.587Z,1003.91
2017-06-12T03:10:46.174Z,1003.85
2017-06-12T03:11:26.763Z,1003.88
2017-06-12T03:12:07.342Z,1003.89
2017-06-12T03:12:47.925Z,1003.87
2017-06-12T03:13:28.505Z,1003.84
2017-06-12T03:14:09.084Z,1003.83
2017-06-12T03:14:49.661Z,1003.83
2017-06-12T03:15:30.247Z,1003.83
2017-06-12T03:16:10.830Z,1003.85
2017-06-12T03:16:51.410Z,1003.82
2017-06-12T03:17:31.984Z,1003.85
2017-06-12T03:18:12.589Z,1003.83
2017-06-12T03:18:53.212Z,1003.85
2017-06-12T03:19:33.817Z,1003.9
2017-06-12T03:20:14.399Z,1003.92
2017-06-12T03:20:54.993Z,1003.88
2017-06-12T03:21:35.579Z,1003.87
2017-06-12T03:22:16.161Z,1003.85
2017-06-12T03:22:56.751Z,1003.86
2017-06-12T03:23:37.334Z,1003.83
2017-06-12T03:24:17.916Z,1003.8
2017-06-12T03:24:58.539Z,1003.79
2017-06-12T03:25:39.118Z,1003.76
2017-06-12T03:26:19.716Z,1003.78
2017-06-12T03:27:00.290Z,1003.8
2017-06-12T03:27:40.876Z,1003.75
2017-06-12T03:28:21.466Z,1003.75
2017-06-12T03:29:02.052Z,1003.73
2017-06-12T03:29:42.639Z,1003.69
2017-06-12T03:30:23.233Z,1003.67
2017-06-12T03:31:03.836Z,1003.68
2017-06-12T03:31:44.436Z,1003.71
2017-06-12T03:32:25.016Z,1003.71
2017-06-12T03:33:05.601Z,1003.7
2017-06-12T03:33:46.171Z,1003.63
2017-06-12T03:34:26.758Z,1003.62
2017-06-12T03:35:07.337Z,1003.65
2017-06-12T03:35:47.919Z,1003.73
2017-06-12T03:36:28.501Z,1003.74
2017-06-12T03:37:09.087Z,1003.76
2017-06-12T03:37:49.670Z,1003.77
2017-06-12T03:38:30.325Z,1003.74
2017-06-12T03:39:10.925Z,1003.74
2017-06-12T03:39:51.512Z,1003.79
2017-06-12T03:40:32.111Z,1003.82
2017-06-12T03:41:12.697Z,1003.81
2017-06-12T03:41:53.278Z,1003.76
2017-06-12T03:42:33.901Z,1003.74
2017-06-12T03:43:14.464Z,1003.8
2017-06-12T03:43:55.047Z,1003.76
2017-06-12T03:44:35.683Z,1003.73
2017-06-12T03:45:16.279Z,1003.76
2017-06-12T03:45:56.861Z,1003.75
2017-06-12T03:46:37.442Z,1003.77
2017-06-12T03:47:18.013Z,1003.81
2017-06-12T03:47:58.602Z,1003.79
2017-06-12T03:48:39.187Z,1003.8
2017-06-12T03:49:19.775Z,1003.8
2017-06-12T03:50:00.388Z,1003.84
2017-06-12T03:50:40.980Z,1003.83
2017-06-12T03:51:21.564Z,1003.82
2017-06-12T03:52:02.172Z,1003.85
2017-06-12T03:52:42.853Z,1003.79
2017-06-12T03:53:23.424Z,1003.81
2017-06-12T03:54:04.015Z,1003.81
2017-06-12T03:54:44.617Z,1003.74
2017-06-12T03:55:25.206Z,1003.75
2017-06-12T03:56:05.795Z,1003.69
2017-06-12T03:56:46.382Z,1003.69
2017-06-12T03:57:26.956Z,1003.69
2017-06-12T03:58:07.553Z,1003.7
2017-06-12T03:58:48.153Z,1003.71
2017-06-12T03:59:28.758Z,1003.71
2017-06-12T04:00:09.338Z,1003.68
2017-06-12T04:00:49.986Z,1003.67
2017-06-12T04:01:30.539Z,1003.66
2017-06-12T04:02:11.123Z,1003.62
2017-06-12T04:02:51.723Z,1003.6
2017-06-12T04:03:32.330Z,1003.58
2017-06-12T04:04:12.903Z,1003.6
2017-06-12T04:04:53.482Z,1003.58
2017-06-12T04:05:34.098Z,1003.58
2017-06-12T04:06:14.675Z,1003.57
2017-06-12T04:06:55.259Z,1003.56
2017-06-12T04:07:35.843Z,1003.58
2017-06-12T04:08:16.425Z,1003.58
2017-06-12T04:08:57.010Z,1003.57
2017-06-12T04:09:37.592Z,1003.57
2017-06-12T04:10:18.252Z,1003.61
2017-06-12T04:10:58.852Z,1003.57
2017-06-12T04:11:39.453Z,1003.57
2017-06-12T04:12:20.057Z,1003.57
2017-06-12T04:13:00.655Z,1003.56
2017-06-12T04:13:41.254Z,1003.56
2017-06-12T04:14:21.832Z,1003.55
2017-06-12T04:15:02.454Z,1003.56
2017-06-12T04:15:43.060Z,1003.53
2017-06-12T04:16:23.650Z,1003.5
2017-06-12T04:17:04.230Z,1003.51
2017-06-12T04:17:44.815Z,1003.48
2017-06-12T04:18:25.401Z,1003.42
2017-06-12T04:19:05.996Z,1003.45
2017-06-12T04:19:46.585Z,1003.41
2017-06-12T04:20:27.163Z,1003.47
2017-06-12T04:21:07.749Z,1003.43
2017-06-12T04:21:48.330Z,1003.43
2017-06-12T04:22:28.938Z,1003.48
2017-06-12T04:23:09.539Z,1003.53
2017-06-12T04:23:50.125Z,1003.53
2017-06-12T04:24:30.702Z,1003.57
2017-06-12T04:25:11.294Z,1003.65
2017-06-12T04:25:51.941Z,1003.68
2017-06-12T04:26:32.534Z,1003.78
2017-06-12T04:27:13.119Z,1003.78
2017-06-12T04:27:53.716Z,1003.85
2017-06-12T04:28:34.301Z,1003.82
2017-06-12T04:29:14.891Z,1003.79
2017-06-12T04:29:55.522Z,1003.8
2017-06-12T04:30:36.126Z,1003.77
2017-06-12T04:31:16.709Z,1003.74
2017-06-12T04:31:57.308Z,1003.71
2017-06-12T04:32:37.923Z,1003.73
2017-06-12T04:33:18.532Z,1003.75
2017-06-12T04:33:59.117Z,1003.74
2017-06-12T04:34:39.715Z,1003.8
2017-06-12T04:35:20.353Z,1003.84
2017-06-12T04:36:00.947Z,1003.89
2017-06-12T04:36:41.515Z,1003.91
2017-06-12T04:37:22.104Z,1003.95
2017-06-12T04:38:02.711Z,1003.93
2017-06-12T04:38:43.295Z,1003.95
2017-06-12T04:39:23.881Z,1003.98
2017-06-12T04:40:04.469Z,1003.93
2017-06-12T04:40:45.052Z,1003.92
2017-06-12T04:41:25.644Z,1003.91
2017-06-12T04:42:06.225Z,1003.92
2017-06-12T04:42:46.803Z,1003.9
2017-06-12T04:43:27.385Z,1003.9
2017-06-12T04:44:07.967Z,1003.88
2017-06-12T04:44:48.558Z,1003.85
2017-06-12T04:45:29.151Z,1003.9
2017-06-12T04:46:09.741Z,1003.82
2017-06-12T04:46:50.360Z,1003.81
2017-06-12T04:47:30.944Z,1003.78
2017-06-12T04:48:11.542Z,1003.81
2017-06-12T04:48:52.134Z,1003.83
2017-06-12T04:49:32.717Z,1003.84
2017-06-12T04:50:13.314Z,1003.91
2017-06-12T04:50:53.897Z,1003.89
2017-06-12T04:51:34.479Z,1003.93
2017-06-12T04:52:15.067Z,1003.92
2017-06-12T04:52:55.669Z,1003.92
2017-06-12T04:53:36.242Z,1003.9
2017-06-12T04:54:16.840Z,1003.91
2017-06-12T04:54:57.414Z,1003.91
2017-06-12T04:55:38.003Z,1003.88
2017-06-12T04:56:18.616Z,1003.88
2017-06-12T04:56:59.198Z,1003.86
2017-06-12T04:57:39.793Z,1003.87
2017-06-12T04:58:20.372Z,1003.89
2017-06-12T04:59:00.932Z,1003.96
2017-06-12T04:59:41.535Z,1004.04
2017-06-12T05:00:22.126Z,1004.14
2017-06-12T05:01:02.706Z,1004.12
2017-06-12T05:01:43.303Z,1004.16
2017-06-12T05:02:23.893Z,1004.13
2017-06-12T05:03:04.467Z,1004.17
2017-06-12T05:03:45.052Z,1004.13
2017-06-12T05:04:25.630Z,1004.16
2017-06-12T05:05:06.220Z,1004.22
2017-06-12T05:05:46.805Z,1004.2
2017-06-12T05:06:27.405Z,1004.24
2017-06-12T05:07:08.042Z,1004.24
2017-06-12T05:07:48.849Z,1004.16
2017-06-12T05:08:29.444Z,1004.19
2017-06-12T05:09:10.022Z,1004.15
2017-06-12T05:09:50.625Z,1004.13
2017-06-12T05:10:31.205Z,1004.1
2017-06-12T05:11:11.852Z,1004.08
2017-06-12T05:11:52.453Z,1004.06
2017-06-12T05:12:33.043Z,1004.11
2017-06-12T05:13:13.646Z,1004.08
2017-06-12T05:13:54.273Z,1004.05
2017-06-12T05:14:34.867Z,1004.14
2017-06-12T05:15:15.441Z,1004.1
2017-06-12T05:15:56.026Z,1004.05
2017-06-12T05:16:36.665Z,1004.09
2017-06-12T05:17:17.570Z,1004.13
2017-06-12T05:17:58.117Z,1004.11
2017-06-12T05:18:38.709Z,1004.09
2017-06-12T05:19:19.283Z,1004.11
2017-06-12T05:19:59.878Z,1004.1
2017-06-12T05:20:40.477Z,1004.07
2017-06-12T05:21:21.061Z,1004.05
2017-06-12T05:22:01.645Z,1004.07
2017-06-12T05:22:42.250Z,1003.98
2017-06-12T05:23:22.849Z,1004.07
2017-06-12T05:24:03.428Z,1004.08
2017-06-12T05:24:44.016Z,1004.16
2017-06-12T05:25:24.609Z,1004.13
2017-06-12T05:26:05.212Z,1004.12
2017-06-12T05:26:45.809Z,1004.02
2017-06-12T05:27:26.596Z,1004.18
2017-06-12T05:28:07.194Z,1004.18
2017-06-12T05:28:47.812Z,1004.13
2017-06-12T05:29:28.428Z,1004.16
2017-06-12T05:30:09.106Z,1004.13
2017-06-12T05:30:49.673Z,1004.2
2017-06-12T05:31:30.291Z,1004.15
2017-06-12T05:32:10.864Z,1004.13
2017-06-12T05:32:51.481Z,1004.15
2017-06-12T05:33:32.052Z,1004.24
2017-06-12T05:34:12.633Z,1004.23
2017-06-12T05:34:53.256Z,1004.24
2017-06-12T05:35:33.948Z,1004.22
2017-06-12T05:36:14.532Z,1004.27
2017-06-12T05:36:55.138Z,1004.29
2017-06-12T05:37:35.725Z,1004.28
2017-06-12T05:38:16.317Z,1004.24
2017-06-12T05:38:56.915Z,1004.21
2017-06-12T05:39:37.506Z,1004.2
2017-06-12T05:40:18.151Z,1004.22
2017-06-12T05:40:58.757Z,1004.25
2017-06-12T05:41:39.360Z,1004.22
2017-06-12T05:42:19.930Z,1004.31
2017-06-12T05:43:00.532Z,1004.26
2017-06-12T05:43:41.148Z,1004.29
2017-06-12T05:44:21.745Z,1004.25
2017-06-12T05:45:02.346Z,1004.29
2017-06-12T05:45:42.920Z,1004.28
2017-06-12T05:46:23.512Z,1004.28
2017-06-12T05:47:04.154Z,1004.24
2017-06-12T05:47:44.718Z,1004.25
2017-06-12T05:48:25.325Z,1004.27
2017-06-12T05:49:05.935Z,1004.23
2017-06-12T05:49:46.537Z,1004.3
2017-06-12T05:50:27.120Z,1004.27
2017-06-12T05:51:07.711Z,1004.3
2017-06-12T05:51:48.326Z,1004.36
2017-06-12T05:52:28.908Z,1004.31
2017-06-12T05:53:09.509Z,1004.33
2017-06-12T05:53:51.072Z,1004.42
2017-06-12T05:54:31.659Z,1004.41
2017-06-12T05:55:12.244Z,1004.36
2017-06-12T05:55:53.596Z,1004.38
2017-06-12T05:56:35.469Z,1004.43
2017-06-12T05:57:16.656Z,1004.37
2017-06-12T05:57:59.062Z,1004.44
2017-06-12T05:58:39.663Z,1004.39
2017-06-12T05:59:20.239Z,1004.46
2017-06-12T06:00:00.876Z,1004.36
2017-06-12T06:00:42.420Z,1004.38
2017-06-12T06:01:23.024Z,1004.35
2017-06-12T06:02:03.617Z,1004.4
2017-06-12T06:02:44.453Z,1004.37
2017-06-12T06:03:25.056Z,1004.39
2017-06-12T06:04:06.990Z,1004.42
2017-06-12T06:04:47.753Z,1004.45
2017-06-12T06:05:28.333Z,1004.44
2017-06-12T06:06:08.960Z,1004.47
2017-06-12T06:06:49.577Z,1004.46
2017-06-12T06:07:30.164Z,1004.46
2017-06-12T06:08:10.752Z,1004.45
2017-06-12T06:08:51.377Z,1004.5
2017-06-12T06:09:32.192Z,1004.52
2017-06-12T06:10:12.737Z,1004.57
2017-06-12T06:10:53.326Z,1004.58
2017-06-12T06:11:35.419Z,1004.61
2017-06-12T06:12:16.017Z,1004.6
2017-06-12T06:12:56.623Z,1004.68
2017-06-12T06:13:37.232Z,1004.68
2017-06-12T06:14:17.825Z,1004.75
2017-06-12T06:14:58.399Z,1004.72
2017-06-12T06:15:39.040Z,1004.74
2017-06-12T06:16:21.560Z,1004.67
2017-06-12T06:17:03.106Z,1004.67
2017-06-12T06:17:43.725Z,1004.69
2017-06-12T06:18:24.309Z,1004.67
2017-06-12T06:19:04.964Z,1004.69
2017-06-12T06:19:46.521Z,1004.64
2017-06-12T06:20:31.435Z,1004.67
2017-06-12T06:21:12.019Z,1004.63
2017-06-12T06:21:52.953Z,1004.65
2017-06-12T06:22:35.080Z,1004.62
2017-06-12T06:23:17.386Z,1004.61
2017-06-12T06:24:01.789Z,1004.61
2017-06-12T06:24:42.988Z,1004.6
2017-06-12T06:25:25.605Z,1004.59
2017-06-12T06:26:06.526Z,1004.56
2017-06-12T06:26:47.175Z,1004.51
2017-06-12T06:27:27.834Z,1004.52
2017-06-12T06:28:08.717Z,1004.51
2017-06-12T06:28:49.530Z,1004.53
2017-06-12T06:29:30.390Z,1004.53
2017-06-12T06:30:11.313Z,1004.54
2017-06-12T06:30:52.230Z,1004.64
2017-06-12T06:31:32.852Z,1004.62
2017-06-12T06:32:13.435Z,1004.65
2017-06-12T06:32:54.013Z,1004.65
2017-06-12T06:33:34.621Z,1004.59
2017-06-12T06:34:15.211Z,1004.65
2017-06-12T06:34:55.790Z,1004.65
2017-06-12T06:35:36.402Z,1004.65
2017-06-12T06:36:16.988Z,1004.65
2017-06-12T06:36:57.795Z,1004.65
2017-06-12T06:37:38.375Z,1004.71
2017-06-12T06:38:18.959Z,1004.68
2017-06-12T06:38:59.541Z,1004.71
2017-06-12T06:39:40.150Z,1004.83
2017-06-12T06:40:20.742Z,1004.78
2017-06-12T06:41:01.325Z,1004.75
2017-06-12T06:41:41.909Z,1004.81
2017-06-12T06:42:22.531Z,1004.87
2017-06-12T06:43:03.129Z,1004.87
2017-06-12T06:43:43.745Z,1004.91
2017-06-12T06:44:24.334Z,1004.88
2017-06-12T06:45:04.958Z,1004.9
2017-06-12T06:45:45.565Z,1004.92
2017-06-12T06:46:26.164Z,1004.93
2017-06-12T06:47:06.761Z,1004.95
2017-06-12T06:47:47.333Z,1004.94
2017-06-12T06:48:27.960Z,1004.95
2017-06-12T06:49:08.572Z,1004.96
2017-06-12T06:49:49.199Z,1004.95
2017-06-12T06:50:29.792Z,1004.9
2017-06-12T06:51:10.380Z,1004.86
2017-06-12T06:51:52.277Z,1004.91
2017-06-12T06:52:35.105Z,1005.55
2017-06-12T06:53:15.707Z,1004.94
2017-06-12T06:53:56.343Z,1004.82
2017-06-12T06:54:37.230Z,1005.94
2017-06-12T06:55:21.986Z,1004.93
2017-06-12T06:56:02.717Z,1004.94
2017-06-12T06:56:43.293Z,1005.17
2017-06-12T06:57:34.295Z,1004.95
2017-06-12T06:58:14.869Z,1005.02
2017-06-12T06:58:55.482Z,1005.22
2017-06-12T06:59:36.077Z,1005.24
2017-06-12T07:00:16.685Z,1005.18
2017-06-12T07:00:57.268Z,1005.07
2017-06-12T07:01:37.846Z,1005.25
2017-06-12T07:02:18.488Z,1005.11
2017-06-12T07:02:59.096Z,1005.05
2017-06-12T07:03:39.695Z,1005.05
2017-06-12T07:04:20.296Z,1005.15
2017-06-12T07:05:00.868Z,1005.18
2017-06-12T07:05:41.473Z,1005.15
2017-06-12T07:06:22.562Z,1005.36
2017-06-12T07:07:03.187Z,1005.09
2017-06-12T07:07:43.760Z,1005.07
2017-06-12T07:08:24.358Z,1005.06
2017-06-12T07:09:04.965Z,1005.1
2017-06-12T07:09:45.545Z,1005.03
2017-06-12T07:10:26.161Z,1004.98
2017-06-12T07:11:06.776Z,1005.03
2017-06-12T07:11:47.378Z,1005.12
2017-06-12T07:12:27.975Z,1005.01
2017-06-12T07:13:08.575Z,1005.04
2017-06-12T07:13:49.279Z,1005.07
2017-06-12T07:14:29.895Z,1005.08
2017-06-12T07:15:10.486Z,1005.2
2017-06-12T07:15:51.105Z,1005.35
2017-06-12T07:16:31.697Z,1005.36
2017-06-12T07:17:12.406Z,1005.12
2017-06-12T07:17:52.986Z,1005.29
2017-06-12T07:18:33.581Z,1005.37
2017-06-12T07:19:14.202Z,1005.42
2017-06-12T07:19:55.190Z,1005.5
2017-06-12T07:20:35.779Z,1005.69
2017-06-12T07:21:16.383Z,1006.24
2017-06-12T07:21:56.985Z,1005.13
2017-06-12T07:22:37.597Z,1007.57
2017-06-12T07:23:18.199Z,1007.81
2017-06-12T07:23:58.857Z,1006.4
2017-06-12T07:24:39.457Z,1008.06
2017-06-12T07:25:20.080Z,1007.95
2017-06-12T07:26:00.659Z,1007.81
2017-06-12T07:26:41.260Z,1007.19
2017-06-12T07:27:21.840Z,1006.64
2017-06-12T07:28:02.429Z,1005.21
2017-06-12T07:28:43.010Z,1005.58
2017-06-12T07:29:23.641Z,1005.13
2017-06-12T07:30:04.230Z,1005.16
2017-06-12T07:30:44.859Z,1005.27
2017-06-12T07:31:25.440Z,1005.4
2017-06-12T07:32:06.022Z,1005.4
2017-06-12T07:32:46.617Z,1005.49
2017-06-12T07:33:27.219Z,1005.45
2017-06-12T07:34:07.846Z,1005.39
2017-06-12T07:34:48.494Z,1005.38
2017-06-12T07:35:29.173Z,1005.4
2017-06-12T07:36:09.754Z,1005.32
2017-06-12T07:36:50.351Z,1005.34
2017-06-12T07:37:30.945Z,1005.36
2017-06-12T07:38:11.553Z,1005.32
2017-06-12T07:38:52.175Z,1005.39
2017-06-12T07:39:32.754Z,1005.34
2017-06-12T07:40:13.358Z,1005.35
2017-06-12T07:40:53.977Z,1005.33
2017-06-12T07:41:34.587Z,1005.14
2017-06-12T07:42:15.198Z,1005.24
2017-06-12T07:42:55.795Z,1005.31
2017-06-12T07:43:36.410Z,1005.13
2017-06-12T07:44:17.002Z,1005.27
2017-06-12T07:44:57.593Z,1005.22
2017-06-12T07:45:38.231Z,1005.22
2017-06-12T07:46:18.856Z,1005.27
2017-06-12T07:46:59.484Z,1005.27
2017-06-12T07:47:40.096Z,1005.26
2017-06-12T07:48:20.692Z,1005.24
2017-06-12T07:49:01.292Z,1005.25
2017-06-12T07:49:41.869Z,1005.33
2017-06-12T07:50:22.515Z,1005.28
2017-06-12T07:51:03.072Z,1005.3
2017-06-12T07:51:43.649Z,1005.19
2017-06-12T07:52:24.245Z,1005.33
2017-06-12T07:53:04.923Z,1005.32
2017-06-12T07:53:45.508Z,1005.32
2017-06-12T07:54:26.112Z,1005.29
2017-06-12T07:55:06.684Z,1005.34
2017-06-12T07:55:47.269Z,1005.32
2017-06-12T07:56:27.892Z,1005.29
2017-06-12T07:57:08.529Z,1005.27
2017-06-12T07:57:49.121Z,1005.17
2017-06-12T07:58:29.724Z,1005.22
2017-06-12T07:59:10.314Z,1005.29
2017-06-12T07:59:50.909Z,1005.19
2017-06-12T08:00:31.580Z,1005.14
2017-06-12T08:01:12.177Z,1005.15
2017-06-12T08:01:52.763Z,1005.2
2017-06-12T08:02:33.357Z,1005.24
2017-06-12T08:03:14.010Z,1005.35
2017-06-12T08:03:54.603Z,1005.24
2017-06-12T08:04:35.195Z,1005.27
2017-06-12T08:05:15.795Z,1005.3
2017-06-12T08:05:56.390Z,1005.23
2017-06-12T08:06:36.975Z,1005.28
2017-06-12T08:07:17.601Z,1005.3
2017-06-12T08:07:58.189Z,1005.23
2017-06-12T08:08:38.780Z,1005.21
2017-06-12T08:09:19.377Z,1005.25
2017-06-12T08:09:59.974Z,1005.27
2017-06-12T08:10:40.552Z,1005.19
2017-06-12T08:11:21.144Z,1005.24
2017-06-12T08:12:01.765Z,1005.18
2017-06-12T08:12:42.362Z,1005.22
2017-06-12T08:13:22.956Z,1005.22
2017-06-12T08:14:03.567Z,1005.31